Time;durP1;ratioP1;P1;durP2;ratioP2;P2;SDS_P1;SDS_P2;PMS_P1;PMS_P2;Temp;Humidity;BMP_temperature;BMP_pressure;BME280_temperature;BME280_humidity;BME280_pressure;Samples;Min_cycle;Max_cycle;Signal;HPM_P1;HPM_P2
2021/01/01 00:00:14;;;;;;;39.80;27.67;;;2.50;99.90;;;;;;5027920;28;20033;-77
2021/01/01 00:02:39;;;;;;;41.38;29.95;;;2.50;99.90;;;;;;5035011;28;20052;-77
2021/01/01 00:05:07;;;;;;;46.90;32.95;;;2.50;99.90;;;;;;5034875;28;20557;-77
2021/01/01 00:07:33;;;;;;;52.25;32.58;;;2.50;99.90;;;;;;5041289;28;20056;-78
2021/01/01 00:09:59;;;;;;;81.05;50.92;;;2.50;99.90;;;;;;5035643;28;20122;-76
2021/01/01 00:12:25;;;;;;;119.25;69.00;;;2.50;99.90;;;;;;5039932;28;20027;-77
2021/01/01 00:14:50;;;;;;;49.53;35.50;;;2.50;99.90;;;;;;5037153;28;20546;-78
2021/01/01 00:17:16;;;;;;;50.63;34.53;;;2.50;99.90;;;;;;5036249;28;20411;-77
2021/01/01 00:19:42;;;;;;;69.00;46.83;;;2.50;99.90;;;;;;5031608;28;20476;-76
2021/01/01 00:22:12;;;;;;;43.63;31.77;;;2.50;99.90;;;;;;5037120;28;20021;-77
2021/01/01 00:24:40;;;;;;;42.85;29.80;;;2.50;99.90;;;;;;5042203;28;20507;-78
2021/01/01 00:27:06;;;;;;;42.97;29.50;;;2.50;99.90;;;;;;5035698;28;20087;-78
2021/01/01 00:29:31;;;;;;;37.15;25.00;;;2.40;99.90;;;;;;5042260;28;20021;-77
2021/01/01 00:31:57;;;;;;;37.35;25.70;;;2.50;99.90;;;;;;5036109;28;20018;-77
2021/01/01 00:34:23;;;;;;;37.45;24.20;;;2.50;99.90;;;;;;5034221;28;20163;-78
2021/01/01 00:36:48;;;;;;;31.85;23.05;;;2.50;99.90;;;;;;5027920;28;20029;-77
2021/01/01 00:39:14;;;;;;;33.47;21.83;;;2.50;99.90;;;;;;5029256;28;20018;-77
2021/01/01 00:41:40;;;;;;;30.35;21.80;;;2.50;99.90;;;;;;5029155;28;20022;-77
2021/01/01 00:44:06;;;;;;;28.95;20.95;;;2.50;99.90;;;;;;5034748;28;20702;-77
2021/01/01 00:46:32;;;;;;;28.52;20.08;;;2.40;99.90;;;;;;5028941;28;20068;-77
2021/01/01 00:48:59;;;;;;;26.92;20.20;;;2.40;99.90;;;;;;5027834;28;20048;-77
2021/01/01 00:51:30;;;;;;;28.52;18.58;;;2.40;99.90;;;;;;5040299;28;20045;-77
2021/01/01 00:53:56;;;;;;;30.73;20.27;;;2.40;99.90;;;;;;5034485;28;20021;-77
2021/01/01 00:56:24;;;;;;;25.98;18.30;;;2.40;99.90;;;;;;5028722;28;20070;-78
2021/01/01 00:58:50;;;;;;;27.45;18.08;;;2.40;99.90;;;;;;5027851;28;20037;-77
2021/01/01 01:01:17;;;;;;;24.77;17.30;;;2.40;99.90;;;;;;5029198;28;20029;-76
2021/01/01 01:03:42;;;;;;;26.92;18.27;;;2.40;99.90;;;;;;5037589;28;20240;-78
2021/01/01 01:06:08;;;;;;;25.70;17.52;;;2.40;99.90;;;;;;5028394;28;20109;-77
2021/01/01 01:08:34;;;;;;;24.13;17.40;;;2.40;99.90;;;;;;5028782;28;20030;-77
2021/01/01 01:10:59;;;;;;;24.05;17.40;;;2.40;99.90;;;;;;5027528;28;20017;-77
2021/01/01 01:13:25;;;;;;;25.13;17.00;;;2.40;99.90;;;;;;5028496;28;20550;-77
2021/01/01 01:15:50;;;;;;;26.75;18.00;;;2.40;99.90;;;;;;5027353;28;20037;-77
2021/01/01 01:18:16;;;;;;;24.92;16.45;;;2.40;99.90;;;;;;5027201;28;20022;-78
2021/01/01 01:20:41;;;;;;;25.20;17.83;;;2.40;99.90;;;;;;5027805;28;20052;-77
2021/01/01 01:23:07;;;;;;;23.83;16.55;;;2.40;99.90;;;;;;5028490;28;20034;-77
2021/01/01 01:25:32;;;;;;;22.77;16.65;;;2.40;99.90;;;;;;5027096;28;20022;-78
2021/01/01 01:27:58;;;;;;;25.92;17.27;;;2.50;99.90;;;;;;5027317;28;20108;-77
2021/01/01 01:30:23;;;;;;;23.83;16.25;;;2.40;99.90;;;;;;5029680;28;20022;-77
2021/01/01 01:32:49;;;;;;;26.27;17.52;;;2.40;99.90;;;;;;5032442;28;20025;-79
2021/01/01 01:35:15;;;;;;;25.40;17.38;;;2.40;99.90;;;;;;5033818;28;20531;-78
2021/01/01 01:37:40;;;;;;;24.65;15.68;;;2.40;99.90;;;;;;5036375;28;20057;-78
2021/01/01 01:40:07;;;;;;;24.92;16.13;;;2.40;99.90;;;;;;5042578;28;20032;-79
2021/01/01 01:42:33;;;;;;;24.95;16.55;;;2.40;99.90;;;;;;5032243;28;20114;-78
2021/01/01 01:44:58;;;;;;;23.33;15.57;;;2.40;99.90;;;;;;5036319;28;20029;-78
2021/01/01 01:47:24;;;;;;;22.70;16.20;;;2.40;99.90;;;;;;5034700;28;20018;-78
2021/01/01 01:49:50;;;;;;;26.38;17.05;;;2.40;99.90;;;;;;5032817;28;20025;-78
2021/01/01 01:52:17;;;;;;;21.20;14.90;;;2.40;99.90;;;;;;5033788;28;20084;-78
2021/01/01 01:54:45;;;;;;;19.40;15.27;;;2.40;99.90;;;;;;5024993;28;20029;-77
2021/01/01 01:57:11;;;;;;;23.70;16.25;;;2.40;99.90;;;;;;5031016;28;20025;-78
2021/01/01 01:59:37;;;;;;;20.08;15.38;;;2.40;99.90;;;;;;5032074;28;20036;-78
2021/01/01 02:02:03;;;;;;;20.05;14.30;;;2.40;99.90;;;;;;5030355;28;20058;-78
2021/01/01 02:04:29;;;;;;;25.58;16.65;;;2.40;99.90;;;;;;5030658;28;20099;-79
2021/01/01 02:06:54;;;;;;;21.88;15.68;;;2.40;99.90;;;;;;5033034;28;20484;-78
2021/01/01 02:09:20;;;;;;;25.10;16.42;;;2.40;99.90;;;;;;5036566;28;20021;-78
2021/01/01 02:11:48;;;;;;;22.48;16.55;;;2.40;99.90;;;;;;5031900;28;20095;-79
2021/01/01 02:14:14;;;;;;;20.52;15.18;;;2.40;99.90;;;;;;5029276;28;20030;-78
2021/01/01 02:16:40;;;;;;;22.67;14.82;;;2.40;99.90;;;;;;5029872;28;20143;-77
2021/01/01 02:19:06;;;;;;;20.75;14.40;;;2.40;99.90;;;;;;5047886;28;20111;-79
2021/01/01 02:21:31;;;;;;;20.17;14.35;;;2.40;99.90;;;;;;5048005;28;20492;-79
2021/01/01 02:23:57;;;;;;;22.02;15.20;;;2.40;99.90;;;;;;5046264;28;20017;-78
2021/01/01 02:26:23;;;;;;;22.10;14.98;;;2.40;99.90;;;;;;5031887;28;20033;-78
2021/01/01 02:28:48;;;;;;;22.90;15.75;;;2.40;99.90;;;;;;5027884;28;20120;-78
2021/01/01 02:31:14;;;;;;;20.88;14.75;;;2.40;99.90;;;;;;5032395;28;20118;-79
2021/01/01 02:33:40;;;;;;;27.27;16.73;;;2.40;99.90;;;;;;5030795;28;20063;-79
2021/01/01 02:36:05;;;;;;;23.30;15.57;;;2.40;99.90;;;;;;5031922;28;20474;-78
2021/01/01 02:38:31;;;;;;;22.70;15.35;;;2.40;99.90;;;;;;5046644;28;20112;-78
2021/01/01 02:40:57;;;;;;;22.90;15.80;;;2.40;99.90;;;;;;5029911;28;20152;-80
2021/01/01 02:43:22;;;;;;;23.52;15.15;;;2.40;99.90;;;;;;5029577;28;20026;-78
2021/01/01 02:45:48;;;;;;;22.65;15.23;;;2.40;99.90;;;;;;5029081;28;20108;-78
2021/01/01 02:48:16;;;;;;;21.80;15.82;;;2.40;99.90;;;;;;5033099;28;20029;-78
2021/01/01 02:50:43;;;;;;;21.63;16.05;;;2.40;99.90;;;;;;5030429;28;20028;-77
2021/01/01 02:53:09;;;;;;;21.00;16.05;;;2.40;99.90;;;;;;5047483;28;20033;-78
2021/01/01 02:55:35;;;;;;;25.55;15.60;;;2.40;99.90;;;;;;5029546;28;20072;-78
2021/01/01 02:58:01;;;;;;;24.40;16.33;;;2.40;99.90;;;;;;5031973;28;20496;-78
2021/01/01 03:00:28;;;;;;;23.67;15.23;;;2.40;99.90;;;;;;5047497;28;20071;-78
2021/01/01 03:02:55;;;;;;;25.70;16.40;;;2.40;99.90;;;;;;5032121;28;20704;-78
2021/01/01 03:05:20;;;;;;;25.00;17.67;;;2.40;99.90;;;;;;5031366;28;20509;-78
2021/01/01 03:07:46;;;;;;;27.00;16.58;;;2.40;99.90;;;;;;5047198;28;20112;-78
2021/01/01 03:10:12;;;;;;;23.88;15.90;;;2.40;99.90;;;;;;5032110;28;20087;-78
2021/01/01 03:12:37;;;;;;;27.63;16.95;;;2.40;99.90;;;;;;5027947;28;20026;-78
2021/01/01 03:15:04;;;;;;;22.10;15.73;;;2.40;99.90;;;;;;5031856;28;20032;-79
2021/01/01 03:17:30;;;;;;;25.30;17.13;;;2.40;99.90;;;;;;5035916;28;20097;-79
2021/01/01 03:19:55;;;;;;;23.83;16.23;;;2.40;99.90;;;;;;5032638;28;20658;-78
2021/01/01 03:22:21;;;;;;;27.50;16.90;;;2.30;99.90;;;;;;5030894;28;20021;-78
2021/01/01 03:24:49;;;;;;;23.83;15.32;;;2.40;99.90;;;;;;5030650;28;20028;-77
2021/01/01 03:27:15;;;;;;;23.85;15.30;;;2.40;99.90;;;;;;5040849;28;20017;-79
2021/01/01 03:29:40;;;;;;;20.92;14.40;;;2.40;99.90;;;;;;5038274;28;20616;-79
2021/01/01 03:32:06;;;;;;;24.33;15.93;;;2.40;99.90;;;;;;5034730;28;20407;-78
2021/01/01 03:34:31;;;;;;;25.52;16.27;;;2.40;99.90;;;;;;5032062;28;20033;-78
2021/01/01 03:36:57;;;;;;;23.95;15.88;;;2.40;99.90;;;;;;5031568;28;20044;-77
2021/01/01 03:39:23;;;;;;;27.30;17.73;;;2.40;99.90;;;;;;5034066;28;20052;-79
2021/01/01 03:41:48;;;;;;;24.02;15.38;;;2.40;99.90;;;;;;5034814;28;20021;-78
2021/01/01 03:44:14;;;;;;;24.30;14.68;;;2.40;99.90;;;;;;5027642;28;20037;-78
2021/01/01 03:46:40;;;;;;;23.90;15.75;;;2.30;99.90;;;;;;5025865;28;20044;-78
2021/01/01 03:49:05;;;;;;;24.15;16.05;;;2.40;99.90;;;;;;5041644;28;20034;-79
2021/01/01 03:51:31;;;;;;;22.77;15.98;;;2.40;99.90;;;;;;5021326;28;20037;-79
2021/01/01 03:53:56;;;;;;;23.42;16.15;;;2.40;99.90;;;;;;5027384;28;20463;-79
2021/01/01 03:56:22;;;;;;;25.92;17.92;;;2.40;99.90;;;;;;5047440;28;20506;-78
2021/01/01 03:58:47;;;;;;;25.60;17.02;;;2.40;99.90;;;;;;5048074;28;20082;-78
2021/01/01 04:01:16;;;;;;;24.02;15.20;;;2.40;99.90;;;;;;5032567;28;20381;-79
2021/01/01 04:03:42;;;;;;;24.52;16.60;;;2.40;99.90;;;;;;5040030;28;20079;-79
2021/01/01 04:06:08;;;;;;;21.33;14.90;;;2.40;99.90;;;;;;5036738;28;20041;-78
2021/01/01 04:08:34;;;;;;;23.90;16.27;;;2.40;99.90;;;;;;5023097;28;20018;-79
2021/01/01 04:10:59;;;;;;;23.50;16.20;;;2.40;99.90;;;;;;5044828;28;20103;-78
2021/01/01 04:13:25;;;;;;;26.73;17.05;;;2.40;99.90;;;;;;5031332;28;20026;-79
2021/01/01 04:15:51;;;;;;;24.80;17.02;;;2.40;99.90;;;;;;5051585;28;20040;-79
2021/01/01 04:18:16;;;;;;;26.05;16.75;;;2.30;99.90;;;;;;5032564;28;20060;-78
2021/01/01 04:20:42;;;;;;;28.00;18.77;;;2.30;99.90;;;;;;5032830;28;20037;-79
2021/01/01 04:23:08;;;;;;;26.15;17.35;;;2.30;99.90;;;;;;5046593;28;20276;-78
2021/01/01 04:25:34;;;;;;;28.50;17.63;;;2.30;99.90;;;;;;5053997;28;20033;-77
2021/01/01 04:27:59;;;;;;;28.15;18.17;;;2.30;99.90;;;;;;5056423;28;20022;-78
2021/01/01 04:30:25;;;;;;;28.88;18.30;;;2.40;99.90;;;;;;5058681;28;20048;-78
2021/01/01 04:32:50;;;;;;;27.80;18.90;;;2.40;99.90;;;;;;5047044;28;20934;-79
2021/01/01 04:35:16;;;;;;;33.08;19.35;;;2.30;99.90;;;;;;5028669;28;20569;-78
2021/01/01 04:37:42;;;;;;;30.20;18.35;;;2.30;99.90;;;;;;5033817;28;20032;-79
2021/01/01 04:40:08;;;;;;;30.17;18.02;;;2.40;99.90;;;;;;5032927;28;20384;-78
2021/01/01 04:42:34;;;;;;;29.27;18.63;;;2.40;99.90;;;;;;5028679;28;20072;-78
2021/01/01 04:45:00;;;;;;;27.10;17.08;;;2.40;99.90;;;;;;5031407;28;20014;-79
2021/01/01 04:47:27;;;;;;;28.10;16.80;;;2.40;99.90;;;;;;5031526;28;20086;-78
2021/01/01 04:49:53;;;;;;;26.50;16.73;;;2.30;99.90;;;;;;5031506;28;20014;-78
2021/01/01 04:52:19;;;;;;;26.13;16.75;;;2.30;99.90;;;;;;5031765;28;20025;-79
2021/01/01 04:54:45;;;;;;;26.45;16.50;;;2.30;99.90;;;;;;5044430;28;20018;-78
2021/01/01 04:57:12;;;;;;;29.73;17.52;;;2.30;99.90;;;;;;5030845;28;20091;-79
2021/01/01 04:59:38;;;;;;;25.05;17.00;;;2.30;99.90;;;;;;5032009;28;20400;-78
2021/01/01 05:02:03;;;;;;;33.08;17.80;;;2.20;99.90;;;;;;5051539;28;20052;-79
2021/01/01 05:04:29;;;;;;;30.05;18.00;;;2.20;99.90;;;;;;5031924;28;20026;-79
2021/01/01 05:06:56;;;;;;;24.67;16.73;;;2.20;99.90;;;;;;5036305;28;20034;-78
2021/01/01 05:09:22;;;;;;;28.02;17.92;;;2.20;99.90;;;;;;5041163;28;20009;-79
2021/01/01 05:11:47;;;;;;;30.25;17.55;;;2.20;99.90;;;;;;5042341;28;20139;-79
2021/01/01 05:14:13;;;;;;;28.30;18.17;;;2.30;99.90;;;;;;5035051;28;20570;-79
2021/01/01 05:16:39;;;;;;;28.98;17.55;;;2.20;99.90;;;;;;5037078;28;20025;-79
2021/01/01 05:19:13;;;;;;;26.77;17.52;;;2.20;99.90;;;;;;5044423;28;20116;-78
2021/01/01 05:21:39;;;;;;;24.05;14.90;;;2.20;99.90;;;;;;5031086;28;20025;-78
2021/01/01 05:24:06;;;;;;;23.10;14.90;;;2.20;99.90;;;;;;5045527;28;20685;-78
2021/01/01 05:26:32;;;;;;;26.50;15.52;;;2.20;99.90;;;;;;5048039;28;20511;-78
2021/01/01 05:29:11;;;;;;;22.35;14.30;;;2.20;99.90;;;;;;5027946;28;20386;-78
2021/01/01 05:31:41;;;;;;;22.08;13.20;;;2.20;99.90;;;;;;5026225;28;20029;-78
2021/01/01 05:34:07;;;;;;;22.30;13.95;;;2.20;99.90;;;;;;5035437;28;20361;-78
2021/01/01 05:36:41;;;;;;;21.88;14.68;;;2.20;99.90;;;;;;5037898;28;20025;-78
2021/01/01 05:39:18;;;;;;;25.48;15.02;;;2.10;99.90;;;;;;5037331;28;20022;-78
2021/01/01 05:41:49;;;;;;;21.92;13.95;;;2.10;99.90;;;;;;5035495;28;20499;-78
2021/01/01 05:44:26;;;;;;;26.48;15.80;;;2.20;99.90;;;;;;5043655;28;20399;-79
2021/01/01 05:46:57;;;;;;;20.23;13.68;;;2.10;99.90;;;;;;5035878;28;20021;-78
2021/01/01 05:49:26;;;;;;;22.35;12.82;;;2.10;99.90;;;;;;5036178;28;20365;-78
2021/01/01 05:52:11;;;;;;;22.17;13.05;;;2.10;99.90;;;;;;5036582;28;20025;-78
2021/01/01 05:54:42;;;;;;;21.13;13.15;;;2.10;99.90;;;;;;5036187;28;20026;-78
2021/01/01 05:57:09;;;;;;;25.67;15.23;;;2.00;99.90;;;;;;5034356;28;20083;-78
2021/01/01 05:59:37;;;;;;;21.88;13.43;;;2.00;99.90;;;;;;5033918;28;20676;-78
2021/01/01 06:02:04;;;;;;;23.80;14.68;;;2.00;99.90;;;;;;5045676;28;20079;-78
2021/01/01 06:04:30;;;;;;;24.38;15.52;;;2.10;99.90;;;;;;5044660;28;20503;-77
2021/01/01 06:06:59;;;;;;;25.02;16.10;;;2.00;99.90;;;;;;5038346;28;20053;-78
2021/01/01 06:09:27;;;;;;;21.48;14.05;;;2.00;99.90;;;;;;5037896;28;20033;-78
2021/01/01 06:12:05;;;;;;;23.45;13.90;;;2.00;99.90;;;;;;5037460;28;20017;-79
2021/01/01 06:14:42;;;;;;;24.13;14.80;;;2.00;99.90;;;;;;5038471;28;20022;-79
2021/01/01 06:17:11;;;;;;;21.38;12.73;;;2.00;99.90;;;;;;5037014;28;20037;-78
2021/01/01 06:19:45;;;;;;;25.90;14.60;;;2.00;99.90;;;;;;5037268;28;20121;-78
2021/01/01 06:22:19;;;;;;;20.35;13.30;;;2.00;99.90;;;;;;5037578;28;20051;-78
2021/01/01 06:24:50;;;;;;;19.30;13.48;;;2.00;99.90;;;;;;5039114;28;20018;-78
2021/01/01 06:27:16;;;;;;;21.02;14.30;;;2.00;99.90;;;;;;5034821;28;20032;-78
2021/01/01 06:29:54;;;;;;;20.05;14.00;;;2.00;99.90;;;;;;5033543;28;20056;-78
2021/01/01 06:32:21;;;;;;;28.80;16.58;;;2.00;99.90;;;;;;5036224;28;20029;-78
2021/01/01 06:34:47;;;;;;;19.27;12.93;;;2.00;99.90;;;;;;5036506;28;20052;-78
2021/01/01 06:37:42;;;;;;;23.40;13.73;;;2.00;99.90;;;;;;5040607;28;20075;-78
2021/01/01 06:40:20;;;;;;;21.98;13.90;;;2.00;99.90;;;;;;5033135;28;20033;-78
2021/01/01 06:43:06;;;;;;;22.90;14.68;;;2.00;99.90;;;;;;5036239;28;20026;-78
2021/01/01 06:45:40;;;;;;;32.25;15.05;;;2.10;99.90;;;;;;5029024;28;20615;-78
2021/01/01 06:48:18;;;;;;;23.80;14.98;;;2.10;99.90;;;;;;5043726;28;20032;-77
2021/01/01 06:50:44;;;;;;;23.15;14.43;;;2.10;99.90;;;;;;5023477;28;20384;-78
2021/01/01 06:53:14;;;;;;;22.10;14.10;;;2.10;99.90;;;;;;5028916;28;20056;-78
2021/01/01 06:55:47;;;;;;;23.75;14.52;;;2.10;99.90;;;;;;5022399;28;20029;-78
2021/01/01 06:58:15;;;;;;;23.25;14.95;;;2.10;99.90;;;;;;5042734;28;20118;-78
2021/01/01 07:00:50;;;;;;;25.02;15.65;;;2.10;99.90;;;;;;5025308;28;20156;-78
2021/01/01 07:03:32;;;;;;;27.38;16.38;;;2.00;99.90;;;;;;5035755;28;20029;-79
2021/01/01 07:06:01;;;;;;;22.27;14.40;;;2.10;99.90;;;;;;5037830;28;20494;-78
2021/01/01 07:08:42;;;;;;;23.75;14.63;;;2.10;99.90;;;;;;5028142;28;20033;-78
2021/01/01 07:11:13;;;;;;;24.52;15.40;;;2.10;99.90;;;;;;5020634;28;20025;-79
2021/01/01 07:13:55;;;;;;;27.15;15.52;;;2.10;99.90;;;;;;5030850;28;20025;-78
2021/01/01 07:16:22;;;;;;;23.70;14.63;;;2.00;99.90;;;;;;5027831;28;20048;-78
2021/01/01 07:18:49;;;;;;;21.13;13.35;;;2.00;99.90;;;;;;5035518;28;20033;-78
2021/01/01 07:21:16;;;;;;;21.88;14.10;;;2.00;99.90;;;;;;5035915;28;20515;-77
2021/01/01 07:23:43;;;;;;;24.58;16.17;;;2.00;99.90;;;;;;5030545;28;20025;-78
2021/01/01 07:26:09;;;;;;;23.33;13.90;;;2.00;99.90;;;;;;5031970;28;20025;-77
2021/01/01 07:28:34;;;;;;;22.83;14.50;;;2.00;99.90;;;;;;5031884;28;20022;-78
2021/01/01 07:31:00;;;;;;;23.02;13.40;;;2.00;99.90;;;;;;5037859;28;20021;-78
2021/01/01 07:33:28;;;;;;;19.50;13.93;;;2.00;99.90;;;;;;5034033;28;20021;-78
2021/01/01 07:35:57;;;;;;;21.58;14.95;;;2.00;99.90;;;;;;5039046;28;20032;-78
2021/01/01 07:38:24;;;;;;;25.38;15.85;;;2.00;99.90;;;;;;5033853;28;20087;-79
2021/01/01 07:40:50;;;;;;;22.85;16.25;;;2.00;99.90;;;;;;5035009;28;20040;-79
2021/01/01 07:43:16;;;;;;;23.85;15.25;;;2.00;99.90;;;;;;5029309;28;20109;-78
2021/01/01 07:45:42;;;;;;;26.48;16.52;;;2.00;99.90;;;;;;5028512;28;20030;-78
2021/01/01 07:48:08;;;;;;;32.70;17.02;;;2.00;99.90;;;;;;5029088;28;20026;-79
2021/01/01 07:50:35;;;;;;;26.73;17.00;;;2.00;99.90;;;;;;5029454;28;20018;-78
2021/01/01 07:53:03;;;;;;;30.40;16.75;;;2.00;99.90;;;;;;5043515;28;20025;-78
2021/01/01 07:55:30;;;;;;;30.17;17.20;;;2.00;99.90;;;;;;5029982;28;20036;-79
2021/01/01 07:58:12;;;;;;;30.95;17.33;;;2.00;99.90;;;;;;5032321;28;20018;-78
2021/01/01 08:00:42;;;;;;;36.17;18.05;;;2.00;99.90;;;;;;5045884;28;20480;-78
2021/01/01 08:03:09;;;;;;;25.90;17.13;;;2.00;99.90;;;;;;5031504;28;20024;-78
2021/01/01 08:05:36;;;;;;;32.00;17.95;;;2.00;99.90;;;;;;5029067;28;20022;-78
2021/01/01 08:08:16;;;;;;;29.77;18.23;;;2.00;99.90;;;;;;5046720;28;20060;-77
2021/01/01 08:10:43;;;;;;;27.77;17.13;;;2.00;99.90;;;;;;5031467;28;20739;-79
2021/01/01 08:13:20;;;;;;;29.67;17.05;;;2.00;99.90;;;;;;5030626;28;20380;-78
2021/01/01 08:15:47;;;;;;;28.27;17.45;;;2.00;99.90;;;;;;5032444;28;20017;-78
2021/01/01 08:18:15;;;;;;;29.05;17.13;;;2.00;99.90;;;;;;5028694;28;20035;-79
2021/01/01 08:20:46;;;;;;;31.58;19.10;;;2.00;99.90;;;;;;5029673;28;20026;-78
2021/01/01 08:23:14;;;;;;;32.20;18.75;;;2.00;99.90;;;;;;5027539;28;20048;-78
2021/01/01 08:25:40;;;;;;;33.08;19.40;;;2.00;99.90;;;;;;5030678;28;20147;-79
2021/01/01 08:28:07;;;;;;;31.42;17.92;;;2.00;99.90;;;;;;5030106;28;20029;-80
2021/01/01 08:30:36;;;;;;;30.63;18.65;;;2.10;99.90;;;;;;5029781;28;20040;-78
2021/01/01 08:33:03;;;;;;;32.85;19.08;;;2.10;99.90;;;;;;5029962;28;20021;-79
2021/01/01 08:35:29;;;;;;;26.15;18.23;;;2.10;99.90;;;;;;5029442;28;20049;-79
2021/01/01 08:37:55;;;;;;;29.75;17.88;;;2.10;99.90;;;;;;5031440;28;20017;-77
2021/01/01 08:40:21;;;;;;;33.20;19.35;;;2.10;99.90;;;;;;5029319;28;20440;-78
2021/01/01 08:42:54;;;;;;;29.85;19.10;;;2.20;99.90;;;;;;5040224;28;20499;-78
2021/01/01 08:45:21;;;;;;;30.58;18.02;;;2.20;99.90;;;;;;5046708;28;20013;-79
2021/01/01 08:47:48;;;;;;;33.05;19.60;;;2.20;99.90;;;;;;5031840;28;20117;-78
2021/01/01 08:50:24;;;;;;;33.10;18.80;;;2.20;99.90;;;;;;5028049;28;20021;-78
2021/01/01 08:52:58;;;;;;;32.22;17.95;;;2.20;99.90;;;;;;5027724;28;20112;-79
2021/01/01 08:55:25;;;;;;;31.17;18.83;;;2.30;99.90;;;;;;5030272;28;20025;-79
2021/01/01 08:58:04;;;;;;;32.40;18.83;;;2.30;99.90;;;;;;5034903;28;20097;-79
2021/01/01 09:00:29;;;;;;;36.08;19.85;;;2.20;99.90;;;;;;5025321;28;20010;-79
2021/01/01 09:02:56;;;;;;;29.73;18.80;;;2.20;99.90;;;;;;5030438;28;20671;-79
2021/01/01 09:05:25;;;;;;;35.10;21.27;;;2.20;99.90;;;;;;5031517;28;20488;-79
2021/01/01 09:08:14;;;;;;;30.15;19.83;;;2.30;99.90;;;;;;5029811;28;20427;-79
2021/01/01 09:10:44;;;;;;;32.25;20.05;;;2.30;99.90;;;;;;5030163;28;20026;-79
2021/01/01 09:13:32;;;;;;;31.35;18.50;;;2.30;99.90;;;;;;5031300;28;20033;-79
2021/01/01 09:16:04;;;;;;;37.85;20.75;;;2.30;99.90;;;;;;5031051;28;20035;-79
2021/01/01 09:18:31;;;;;;;35.80;20.35;;;2.30;99.90;;;;;;5032466;28;20033;-78
2021/01/01 09:21:28;;;;;;;34.55;20.80;;;2.30;99.90;;;;;;5030794;28;20083;-78
2021/01/01 09:23:54;;;;;;;31.83;19.63;;;2.30;99.90;;;;;;4975704;28;20033;-78
2021/01/01 09:26:24;;;;;;;32.63;19.30;;;2.30;99.90;;;;;;5030694;28;20048;-77
2021/01/01 09:29:09;;;;;;;33.30;20.05;;;2.30;99.90;;;;;;5034230;28;20403;-77
2021/01/01 09:31:36;;;;;;;34.75;20.70;;;2.30;99.90;;;;;;5023692;28;20032;-77
2021/01/01 09:34:07;;;;;;;34.70;21.20;;;2.30;99.90;;;;;;5035682;28;20034;-77
2021/01/01 09:36:35;;;;;;;36.45;23.33;;;2.30;99.90;;;;;;5038455;28;20040;-77
2021/01/01 09:39:00;;;;;;;48.47;26.65;;;2.30;99.90;;;;;;5032266;28;20026;-78
2021/01/01 09:41:27;;;;;;;50.55;27.25;;;2.30;99.90;;;;;;5029823;28;20021;-79
2021/01/01 09:43:53;;;;;;;47.28;26.58;;;2.30;99.90;;;;;;5030592;28;20033;-78
2021/01/01 09:46:18;;;;;;;45.42;26.00;;;2.40;99.90;;;;;;5030000;28;20453;-77
2021/01/01 09:48:44;;;;;;;42.90;24.50;;;2.40;99.90;;;;;;5040193;28;20029;-78
2021/01/01 09:51:09;;;;;;;44.13;24.33;;;2.40;99.90;;;;;;5027847;28;20036;-78
2021/01/01 09:53:35;;;;;;;41.33;22.65;;;2.40;99.90;;;;;;5033542;28;20152;-78
2021/01/01 09:56:00;;;;;;;38.50;22.90;;;2.40;99.90;;;;;;5034693;28;20039;-78
2021/01/01 09:58:26;;;;;;;37.17;23.15;;;2.40;99.90;;;;;;5031717;28;20033;-78
2021/01/01 10:00:52;;;;;;;39.90;23.67;;;2.40;99.90;;;;;;5050560;28;20025;-77
2021/01/01 10:03:17;;;;;;;44.90;25.23;;;2.40;99.90;;;;;;5033956;28;20029;-78
2021/01/01 10:05:46;;;;;;;44.70;24.80;;;2.40;99.90;;;;;;5034025;28;20033;-77
2021/01/01 10:08:12;;;;;;;45.40;26.05;;;2.40;99.90;;;;;;5049047;28;20117;-77
2021/01/01 10:10:37;;;;;;;44.85;25.48;;;2.50;99.90;;;;;;5046326;28;20057;-77
2021/01/01 10:13:03;;;;;;;46.75;25.02;;;2.50;99.90;;;;;;5042179;28;20052;-77
2021/01/01 10:15:28;;;;;;;45.03;25.58;;;2.50;99.90;;;;;;5048603;28;20025;-77
2021/01/01 10:17:54;;;;;;;44.55;26.45;;;2.50;99.90;;;;;;5036188;28;20017;-77
2021/01/01 10:20:19;;;;;;;49.97;28.25;;;2.50;99.90;;;;;;5042172;28;20029;-77
2021/01/01 10:22:45;;;;;;;47.08;26.95;;;2.50;99.90;;;;;;5043416;28;20082;-77
2021/01/01 10:25:11;;;;;;;47.70;28.63;;;2.60;99.90;;;;;;5048596;28;20032;-78
2021/01/01 10:27:36;;;;;;;46.55;27.55;;;2.70;99.90;;;;;;5045605;28;20033;-77
2021/01/01 10:30:05;;;;;;;45.75;25.73;;;2.70;99.90;;;;;;5036055;28;20044;-78
2021/01/01 10:32:31;;;;;;;46.35;26.73;;;2.70;99.90;;;;;;5043351;28;20029;-78
2021/01/01 10:34:57;;;;;;;48.47;27.40;;;2.70;99.90;;;;;;5045618;28;20083;-78
2021/01/01 10:37:22;;;;;;;49.08;27.75;;;2.80;99.90;;;;;;5049441;28;20033;-77
2021/01/01 10:39:48;;;;;;;45.67;26.45;;;2.80;99.90;;;;;;5035415;28;20017;-77
2021/01/01 10:42:13;;;;;;;45.58;27.55;;;2.80;99.90;;;;;;5041165;28;20065;-77
2021/01/01 10:44:39;;;;;;;41.28;25.70;;;2.80;99.90;;;;;;5032171;28;20025;-77
2021/01/01 10:47:05;;;;;;;44.80;25.70;;;2.80;99.90;;;;;;5033839;28;20038;-77
2021/01/01 10:49:30;;;;;;;45.45;27.42;;;2.80;99.90;;;;;;5032343;28;20068;-78
2021/01/01 10:52:00;;;;;;;43.58;26.48;;;2.80;99.90;;;;;;5031809;28;20013;-77
2021/01/01 10:54:27;;;;;;;42.33;24.88;;;2.80;99.90;;;;;;5032134;28;20026;-77
2021/01/01 10:56:53;;;;;;;40.13;24.58;;;2.90;99.90;;;;;;5031066;28;20034;-78
2021/01/01 10:59:18;;;;;;;36.80;22.88;;;2.90;99.90;;;;;;5032371;28;20036;-77
2021/01/01 11:01:44;;;;;;;39.08;23.33;;;2.90;99.90;;;;;;5036048;28;20101;-77
2021/01/01 11:04:09;;;;;;;37.58;23.75;;;2.90;99.90;;;;;;5031246;28;20033;-78
2021/01/01 11:06:36;;;;;;;38.72;25.15;;;2.90;99.90;;;;;;5031963;28;20121;-78
2021/01/01 11:09:02;;;;;;;39.05;24.45;;;3.00;99.90;;;;;;5033550;28;20067;-77
2021/01/01 11:11:28;;;;;;;40.72;24.67;;;3.00;99.90;;;;;;5030808;28;20029;-77
2021/01/01 11:14:00;;;;;;;41.92;25.13;;;3.00;99.90;;;;;;5028907;28;20034;-77
2021/01/01 12:25:19;;;;;;;24.50;16.35;;;3.60;99.90;;;;;;5033342;28;20083;-77
2021/01/01 12:27:48;;;;;;;30.70;17.55;;;3.60;99.90;;;;;;5031619;28;20021;-78
2021/01/01 12:30:15;;;;;;;33.30;18.65;;;3.70;99.90;;;;;;5032023;28;20028;-77
2021/01/01 12:32:42;;;;;;;36.22;21.65;;;3.70;99.90;;;;;;5032427;28;20025;-78
2021/01/01 12:35:10;;;;;;;36.63;22.33;;;3.70;99.90;;;;;;5033725;28;20488;-78
2021/01/01 12:37:37;;;;;;;31.02;20.92;;;3.70;99.90;;;;;;5033174;28;20030;-78
2021/01/01 12:40:04;;;;;;;37.17;22.05;;;3.70;99.90;;;;;;5035559;28;20116;-77
2021/01/01 12:42:30;;;;;;;36.60;23.23;;;3.70;99.90;;;;;;5034415;28;20017;-78
2021/01/01 12:44:55;;;;;;;32.78;19.77;;;3.70;99.90;;;;;;5034011;28;20104;-78
2021/01/01 12:47:21;;;;;;;25.30;17.08;;;3.70;99.90;;;;;;5033679;28;20060;-78
2021/01/01 12:49:47;;;;;;;31.00;19.67;;;3.70;99.90;;;;;;5034078;28;20029;-77
2021/01/01 12:52:12;;;;;;;51.97;30.10;;;3.70;99.90;;;;;;5033377;28;20025;-78
2021/01/01 12:54:39;;;;;;;24.73;17.00;;;3.70;99.90;;;;;;5032513;28;20025;-78
2021/01/01 12:57:05;;;;;;;24.63;17.02;;;3.70;99.90;;;;;;5031694;28;20454;-78
2021/01/01 12:59:31;;;;;;;22.48;15.63;;;3.70;99.90;;;;;;5034081;28;20049;-76
2021/01/01 13:01:56;;;;;;;22.08;15.07;;;3.70;99.90;;;;;;5041217;28;20063;-77
2021/01/01 13:04:22;;;;;;;21.50;15.50;;;3.70;99.90;;;;;;5037168;28;20125;-77
2021/01/01 13:06:47;;;;;;;23.63;17.38;;;3.70;99.90;;;;;;5041289;28;20438;-77
2021/01/01 13:09:13;;;;;;;27.08;16.48;;;3.70;99.90;;;;;;5030529;28;20032;-78
2021/01/01 13:11:45;;;;;;;30.48;18.25;;;3.70;99.90;;;;;;5035811;28;20023;-78
2021/01/01 13:14:14;;;;;;;33.58;21.42;;;3.70;99.90;;;;;;5035413;28;20037;-77
2021/01/01 13:16:45;;;;;;;27.83;19.67;;;3.70;99.90;;;;;;5034709;28;20061;-78
2021/01/01 13:19:11;;;;;;;32.28;19.98;;;3.70;99.90;;;;;;5037017;28;20021;-77
2021/01/01 13:21:39;;;;;;;35.55;19.90;;;3.70;99.90;;;;;;5036558;28;20033;-77
2021/01/01 13:24:05;;;;;;;33.05;20.65;;;3.80;99.90;;;;;;5040181;28;20100;-78
2021/01/01 13:26:32;;;;;;;32.53;20.67;;;3.80;99.90;;;;;;5038211;28;20112;-78
2021/01/01 13:28:58;;;;;;;31.08;18.98;;;3.80;99.90;;;;;;5041158;28;20041;-77
2021/01/01 13:31:39;;;;;;;31.40;20.70;;;3.80;99.90;;;;;;5039821;28;20045;-77
2021/01/01 13:34:07;;;;;;;34.97;20.60;;;3.80;99.90;;;;;;5034104;28;20037;-77
2021/01/01 13:36:33;;;;;;;30.42;19.20;;;3.80;99.90;;;;;;5038597;28;20049;-78
2021/01/01 13:38:59;;;;;;;31.88;19.02;;;3.80;99.90;;;;;;5034653;28;20028;-77
2021/01/01 13:41:25;;;;;;;28.38;19.05;;;3.80;99.90;;;;;;5036005;28;20029;-77
2021/01/01 13:43:53;;;;;;;34.65;19.70;;;3.80;99.90;;;;;;5034514;28;20029;-78
2021/01/01 13:46:26;;;;;;;25.35;17.50;;;3.80;99.90;;;;;;5034637;28;20029;-78